createdAt,value
2022-09-14T00:00:07.489Z,36.10
2022-09-14T00:04:20.898Z,24.00
2022-09-14T00:08:25.804Z,23.40
2022-09-14T00:12:29.767Z,26.80
2022-09-14T00:19:57.446Z,28.80
2022-09-14T00:23:41.157Z,34.00
2022-09-14T00:27:28.367Z,41.10
2022-09-14T00:31:22.210Z,35.70
2022-09-14T00:35:04.357Z,38.20
2022-09-14T00:39:07.298Z,42.00
2022-09-14T00:43:10.236Z,39.20
2022-09-14T00:47:08.349Z,36.50
2022-09-14T00:50:54.775Z,43.10
2022-09-14T00:54:49.102Z,35.20
2022-09-14T00:58:43.743Z,36.10
2022-09-14T01:02:47.586Z,39.40
2022-09-14T01:06:40.852Z,33.10
2022-09-14T01:10:53.264Z,30.30
2022-09-14T01:15:02.953Z,37.20
2022-09-14T01:19:28.122Z,35.60
2022-09-14T01:23:35.137Z,37.50
2022-09-14T01:27:49.957Z,41.00
2022-09-14T01:31:53.754Z,39.20
2022-09-14T01:35:36.075Z,45.00
2022-09-14T01:39:39.838Z,47.20
2022-09-14T01:43:36.226Z,45.00
2022-09-14T01:47:26.127Z,41.20
2022-09-14T01:51:19.898Z,41.40
2022-09-14T01:55:18.032Z,44.90
2022-09-14T01:59:04.402Z,41.20
2022-09-14T02:02:23.385Z,49.40
2022-09-14T02:06:09.461Z,40.40
2022-09-14T02:10:06.387Z,39.00
2022-09-14T02:13:29.885Z,44.60
2022-09-14T02:20:41.584Z,40.40
2022-09-14T02:24:36.944Z,36.80
2022-09-14T02:28:29.159Z,36.80
2022-09-14T02:32:38.946Z,42.10
2022-09-14T02:36:42.783Z,35.90
2022-09-14T02:40:49.805Z,40.30
2022-09-14T02:44:53.030Z,38.30
2022-09-14T02:48:50.176Z,35.10
2022-09-14T02:52:57.043Z,34.70
2022-09-14T02:56:52.282Z,32.60
2022-09-14T03:00:25.983Z,28.80
2022-09-14T03:03:59.729Z,30.80
2022-09-14T03:07:52.743Z,30.90
2022-09-14T03:11:56.910Z,30.20
2022-09-14T03:18:44.947Z,25.60
2022-09-14T03:22:48.787Z,25.40
2022-09-14T03:26:43.438Z,27.40
2022-09-14T03:30:38.101Z,23.70
2022-09-14T03:34:34.386Z,24.90
2022-09-14T03:38:28.593Z,25.50
2022-09-14T03:42:12.311Z,24.40
2022-09-14T03:46:07.339Z,25.10
2022-09-14T03:49:42.723Z,22.00
2022-09-14T03:53:29.247Z,27.80
2022-09-14T03:57:21.646Z,24.60
2022-09-14T04:01:15.280Z,24.60
2022-09-14T04:05:00.201Z,32.50
2022-09-14T04:08:55.462Z,25.90
2022-09-14T04:12:59.235Z,22.60
2022-09-14T04:16:43.170Z,18.90
2022-09-14T04:20:48.221Z,20.20
2022-09-14T04:24:52.803Z,21.40
2022-09-14T04:28:56.522Z,22.10
2022-09-14T04:32:38.530Z,22.20
2022-09-14T04:36:33.794Z,26.00
2022-09-14T04:40:18.841Z,22.40
2022-09-14T04:43:15.466Z,27.60
2022-09-14T04:47:11.177Z,21.00
2022-09-14T04:50:47.854Z,21.10
2022-09-14T04:54:22.451Z,20.00
2022-09-14T05:01:16.885Z,25.90
2022-09-14T05:04:43.552Z,19.40
2022-09-14T05:08:17.555Z,16.10
2022-09-14T05:12:02.457Z,15.80
2022-09-14T05:19:11.511Z,22.30
2022-09-14T05:22:48.186Z,14.60
2022-09-14T05:26:29.085Z,17.20
2022-09-14T05:30:12.597Z,15.00
2022-09-14T05:33:45.249Z,13.60
2022-09-14T05:37:21.355Z,18.20
2022-09-14T05:41:03.557Z,15.80
2022-09-14T05:44:47.734Z,15.80
2022-09-14T05:48:12.502Z,16.60
2022-09-14T05:52:06.351Z,15.40
2022-09-14T05:55:46.454Z,16.80
2022-09-14T05:59:28.689Z,16.90
2022-09-14T06:03:11.245Z,12.70
2022-09-14T06:06:37.357Z,17.40
2022-09-14T06:10:41.269Z,11.50
2022-09-14T06:21:22.585Z,22.60
2022-09-14T06:25:16.117Z,15.90
2022-09-14T06:31:54.118Z,14.10
2022-09-14T06:34:44.881Z,14.30
2022-09-14T06:38:18.884Z,12.80
2022-09-14T06:41:48.957Z,14.90
2022-09-14T06:45:32.707Z,13.70
2022-09-14T06:49:20.598Z,13.60
2022-09-14T06:53:06.471Z,12.70
2022-09-14T06:56:36.073Z,12.80
2022-09-14T07:00:18.485Z,14.00
2022-09-14T07:03:28.606Z,9.00
2022-09-14T07:06:48.544Z,9.70
2022-09-14T07:10:15.337Z,8.90
2022-09-14T07:13:35.524Z,9.30
2022-09-14T07:17:09.203Z,13.20
2022-09-14T07:20:16.210Z,6.80
2022-09-14T07:23:14.335Z,10.80
2022-09-14T07:27:02.294Z,8.70
2022-09-14T07:30:20.006Z,11.90
2022-09-14T07:34:06.705Z,11.90
2022-09-14T07:37:12.706Z,14.20
2022-09-14T07:40:12.798Z,14.10
2022-09-14T07:43:38.559Z,6.40
2022-09-14T07:47:13.133Z,12.30
2022-09-14T07:50:17.230Z,14.30
2022-09-14T07:53:26.654Z,8.20
2022-09-14T07:57:23.852Z,9.10
2022-09-14T08:00:36.042Z,8.40
2022-09-14T08:03:43.035Z,8.50
2022-09-14T08:06:26.548Z,12.10
2022-09-14T08:09:21.790Z,11.00
2022-09-14T08:12:45.089Z,12.00
2022-09-14T08:16:02.439Z,8.60
2022-09-14T08:19:17.196Z,10.70
2022-09-14T08:22:09.332Z,14.30
2022-09-14T08:25:42.032Z,7.80
2022-09-14T08:29:14.803Z,9.80
2022-09-14T08:32:21.544Z,9.60
2022-09-14T08:35:57.971Z,6.70
2022-09-14T08:39:01.217Z,8.60
2022-09-14T08:41:56.045Z,8.30
2022-09-14T08:45:12.205Z,13.30
2022-09-14T08:48:36.489Z,11.20
2022-09-14T08:51:47.070Z,11.80
2022-09-14T08:54:42.486Z,7.20
2022-09-14T08:58:03.834Z,12.30
2022-09-14T09:01:07.200Z,8.60
2022-09-14T09:04:50.893Z,10.00
2022-09-14T09:08:18.273Z,8.70
2022-09-14T09:11:05.714Z,10.90
2022-09-14T09:13:59.351Z,9.00
2022-09-14T09:17:41.829Z,12.90
2022-09-14T09:20:53.496Z,9.00
2022-09-14T09:23:42.298Z,21.60
2022-09-14T09:26:48.702Z,14.80
2022-09-14T09:30:02.049Z,9.90
2022-09-14T09:33:36.287Z,9.20
2022-09-14T09:37:01.098Z,11.70
2022-09-14T09:40:45.100Z,7.60
2022-09-14T09:44:12.597Z,4.90
2022-09-14T09:47:40.106Z,9.60
2022-09-14T09:50:58.791Z,7.30
2022-09-14T09:53:59.799Z,8.10
2022-09-14T10:00:45.719Z,8.30
2022-09-14T10:04:33.971Z,10.00
2022-09-14T10:07:52.536Z,8.90
2022-09-14T10:11:36.670Z,6.50
2022-09-14T10:15:15.330Z,9.20
2022-09-14T10:18:26.696Z,8.40
2022-09-14T10:21:39.231Z,8.20
2022-09-14T10:25:17.618Z,6.80
2022-09-14T10:28:29.317Z,11.40
2022-09-14T10:31:27.057Z,13.20
2022-09-14T10:34:30.516Z,8.80
2022-09-14T10:38:19.846Z,7.40
2022-09-14T10:41:31.435Z,11.80
2022-09-14T10:45:12.967Z,9.20
2022-09-14T10:48:57.206Z,9.70
2022-09-14T10:52:00.152Z,5.20
2022-09-14T10:55:48.340Z,9.50
2022-09-14T10:59:15.640Z,18.60
2022-09-14T11:02:20.914Z,8.80
2022-09-14T11:05:55.293Z,9.30
2022-09-14T11:09:24.798Z,5.70
2022-09-14T11:12:38.454Z,9.50
2022-09-14T11:16:16.579Z,6.70
2022-09-14T11:19:41.239Z,6.30
2022-09-14T11:22:52.289Z,8.10
2022-09-14T11:26:45.113Z,9.60
2022-09-14T11:30:18.500Z,8.10
2022-09-14T11:33:19.323Z,7.40
2022-09-14T11:37:04.214Z,5.90
2022-09-14T11:40:39.213Z,5.70
2022-09-14T11:43:46.512Z,10.30
2022-09-14T11:47:31.068Z,6.80
2022-09-14T11:51:07.592Z,8.30
2022-09-14T11:54:30.985Z,6.50
2022-09-14T11:58:07.522Z,5.80
2022-09-14T12:01:41.098Z,7.60
2022-09-14T12:05:35.941Z,8.70
2022-09-14T12:09:00.224Z,7.50
2022-09-14T12:12:45.956Z,8.50
2022-09-14T12:16:15.637Z,8.10
2022-09-14T12:20:08.123Z,7.50
2022-09-14T12:23:52.456Z,7.50
2022-09-14T12:27:36.489Z,6.40
2022-09-14T12:31:05.143Z,6.50
2022-09-14T12:34:48.651Z,9.80
2022-09-14T12:38:21.172Z,4.90
2022-09-14T12:41:33.504Z,5.20
2022-09-14T12:45:20.489Z,7.40
2022-09-14T12:49:05.662Z,10.00
2022-09-14T12:52:12.540Z,7.40
2022-09-14T12:55:49.845Z,12.60
2022-09-14T12:59:44.646Z,9.30
2022-09-14T13:03:11.605Z,10.60
2022-09-14T13:06:39.898Z,11.30
2022-09-14T13:10:26.370Z,10.00
2022-09-14T13:13:52.668Z,6.00
2022-09-14T13:17:09.812Z,6.80
2022-09-14T13:20:05.501Z,10.40
2022-09-14T13:23:20.821Z,6.10
2022-09-14T13:27:08.580Z,10.20
2022-09-14T13:30:31.811Z,7.50
2022-09-14T13:33:36.987Z,5.70
2022-09-14T13:37:03.279Z,7.20
2022-09-14T13:40:28.585Z,5.90
2022-09-14T13:43:22.886Z,9.00
2022-09-14T13:46:27.950Z,6.90
2022-09-14T13:49:50.785Z,8.10
2022-09-14T13:53:01.815Z,8.40
2022-09-14T13:56:38.064Z,9.00
2022-09-14T13:59:36.188Z,8.20
2022-09-14T14:02:28.635Z,8.80
2022-09-14T14:09:16.294Z,6.90
2022-09-14T14:12:07.991Z,6.90
2022-09-14T14:15:31.416Z,7.20
2022-09-14T14:19:17.344Z,9.50
2022-09-14T14:22:39.597Z,5.60
2022-09-14T14:25:47.578Z,8.80
2022-09-14T14:28:36.858Z,9.10
2022-09-14T14:32:00.422Z,5.60
2022-09-14T14:35:15.208Z,4.40
2022-09-14T14:38:59.041Z,43.40
2022-09-14T14:42:12.940Z,39.80
2022-09-14T14:45:47.686Z,6.10
2022-09-14T14:49:20.439Z,5.50
2022-09-14T14:52:34.006Z,11.60
2022-09-14T14:56:00.094Z,6.90
2022-09-14T14:59:07.160Z,8.50
2022-09-14T15:02:04.917Z,9.30
2022-09-14T15:05:06.148Z,7.00
2022-09-14T15:08:27.854Z,9.50
2022-09-14T15:11:30.623Z,9.00
2022-09-14T15:14:34.411Z,8.30
2022-09-14T15:17:43.317Z,6.50
2022-09-14T15:20:43.802Z,13.40
2022-09-14T15:23:58.909Z,10.60
2022-09-14T15:27:07.790Z,9.30
2022-09-14T15:30:37.959Z,6.80
2022-09-14T15:33:43.609Z,8.80
2022-09-14T15:36:52.733Z,9.20
2022-09-14T15:39:59.170Z,6.00
2022-09-14T15:43:01.430Z,9.40
2022-09-14T15:46:15.689Z,6.40
2022-09-14T15:49:25.491Z,4.80
2022-09-14T15:52:59.167Z,8.60
2022-09-14T15:55:58.844Z,9.70
2022-09-14T15:59:03.478Z,8.00
2022-09-14T16:01:57.364Z,10.60
2022-09-14T16:05:21.289Z,10.20
2022-09-14T16:08:44.494Z,6.70
2022-09-14T16:12:41.216Z,12.20
2022-09-14T16:15:53.578Z,6.30
2022-09-14T16:19:31.212Z,9.30
2022-09-14T16:22:47.748Z,6.00
2022-09-14T16:26:16.981Z,14.00
2022-09-14T16:29:39.513Z,10.80
2022-09-14T16:32:53.158Z,11.70
2022-09-14T16:36:44.018Z,6.10
2022-09-14T16:40:10.080Z,9.80
2022-09-14T16:43:38.570Z,7.50
2022-09-14T16:47:34.147Z,7.30
2022-09-14T16:50:37.837Z,7.30
2022-09-14T16:54:04.653Z,15.20
2022-09-14T16:57:22.769Z,7.70
2022-09-14T17:00:43.987Z,8.70
2022-09-14T17:04:09.774Z,14.00
2022-09-14T17:07:19.484Z,7.90
2022-09-14T17:10:30.426Z,12.90
2022-09-14T17:13:48.391Z,12.30
2022-09-14T17:16:46.978Z,13.70
2022-09-14T17:20:08.180Z,7.80
2022-09-14T17:23:13.038Z,10.00
2022-09-14T17:26:51.613Z,12.10
2022-09-14T17:29:57.518Z,9.70
2022-09-14T17:33:13.305Z,9.60
2022-09-14T17:36:52.378Z,11.40
2022-09-14T17:40:47.467Z,6.50
2022-09-14T17:44:51.738Z,11.10
2022-09-14T17:48:36.561Z,12.30
2022-09-14T17:52:30.904Z,8.10
2022-09-14T17:55:53.216Z,9.20
2022-09-14T17:59:33.550Z,13.90
2022-09-14T18:03:10.207Z,12.00
2022-09-14T18:06:36.694Z,10.40
2022-09-14T18:10:20.906Z,10.20
2022-09-14T18:13:54.781Z,13.60
2022-09-14T18:17:20.984Z,13.90
2022-09-14T18:20:36.337Z,13.90
2022-09-14T18:23:38.085Z,9.90
2022-09-14T18:27:16.564Z,15.60
2022-09-14T18:30:40.491Z,15.80
2022-09-14T18:34:01.866Z,11.90
2022-09-14T18:37:46.534Z,12.00
2022-09-14T18:41:04.340Z,13.90
2022-09-14T18:44:21.444Z,16.50
2022-09-14T18:47:54.426Z,11.70
2022-09-14T18:51:18.242Z,12.10
2022-09-14T18:54:30.728Z,12.60
2022-09-14T18:57:47.110Z,13.00
2022-09-14T19:00:39.989Z,12.60
2022-09-14T19:03:39.363Z,15.80
2022-09-14T19:07:11.987Z,13.40
2022-09-14T19:10:36.247Z,10.60
2022-09-14T19:13:54.540Z,10.60
2022-09-14T19:17:18.292Z,12.70
2022-09-14T19:21:02.142Z,16.90
2022-09-14T19:24:38.559Z,12.50
2022-09-14T19:27:52.168Z,10.30
2022-09-14T19:31:05.902Z,12.30
2022-09-14T19:34:15.715Z,12.60
2022-09-14T19:37:20.674Z,12.90
2022-09-14T19:40:46.992Z,6.90
2022-09-14T19:47:43.435Z,15.80
2022-09-14T19:51:30.313Z,13.00
2022-09-14T19:55:05.210Z,9.90
2022-09-14T19:58:31.283Z,11.00
2022-09-14T20:02:24.511Z,13.60
2022-09-14T20:05:51.272Z,9.10
2022-09-14T20:09:37.456Z,10.80
2022-09-14T20:13:05.341Z,15.00
2022-09-14T20:16:53.036Z,13.50
2022-09-14T20:20:29.671Z,12.20
2022-09-14T20:24:26.302Z,11.20
2022-09-14T20:27:52.518Z,12.20
2022-09-14T20:31:19.317Z,12.80
2022-09-14T20:34:53.780Z,11.60
2022-09-14T20:42:17.759Z,11.60
2022-09-14T20:45:52.370Z,13.40
2022-09-14T20:49:27.511Z,11.80
2022-09-14T20:53:11.218Z,8.70
2022-09-14T20:56:55.998Z,11.80
2022-09-14T21:00:50.129Z,15.10
2022-09-14T21:04:14.231Z,14.60
2022-09-14T21:07:56.008Z,12.50
2022-09-14T21:11:51.448Z,13.00
2022-09-14T21:15:30.114Z,13.10
2022-09-14T21:19:03.704Z,14.30
2022-09-14T21:22:50.461Z,11.50
2022-09-14T21:26:48.217Z,15.00
2022-09-14T21:30:21.842Z,11.00
2022-09-14T21:38:09.017Z,8.90
2022-09-14T21:42:12.731Z,13.00
2022-09-14T21:46:16.456Z,11.50
2022-09-14T21:50:19.274Z,9.90
2022-09-14T21:53:41.229Z,16.50
2022-09-14T21:57:45.138Z,10.30
2022-09-14T22:01:27.805Z,10.60
2022-09-14T22:04:42.867Z,15.30
2022-09-14T22:08:19.202Z,12.70
2022-09-14T22:12:04.305Z,13.70
2022-09-14T22:15:31.432Z,11.90
2022-09-14T22:19:09.223Z,15.20
2022-09-14T22:22:45.304Z,9.10
2022-09-14T22:26:29.018Z,12.00
2022-09-14T22:30:04.894Z,14.10
2022-09-14T22:33:54.227Z,11.40
2022-09-14T22:37:38.817Z,9.70
2022-09-14T22:41:36.644Z,15.70
2022-09-14T22:45:18.114Z,11.30
2022-09-14T22:48:55.353Z,10.60
2022-09-14T22:52:11.310Z,9.50
2022-09-14T22:55:58.808Z,13.10
2022-09-14T23:00:00.832Z,10.20
2022-09-14T23:03:44.695Z,14.80
2022-09-14T23:07:24.320Z,12.50
2022-09-14T23:10:57.467Z,12.00
2022-09-14T23:14:40.959Z,12.40
2022-09-14T23:18:24.701Z,12.30
2022-09-14T23:22:11.612Z,9.70
2022-09-14T23:25:35.015Z,13.20
2022-09-14T23:32:55.400Z,9.00
2022-09-14T23:36:49.309Z,11.60
2022-09-14T23:40:44.200Z,13.40
2022-09-14T23:44:38.912Z,12.60
2022-09-14T23:48:42.863Z,10.70
2022-09-14T23:52:37.819Z,8.30
2022-09-14T23:56:34.689Z,11.90
